sensor_id;sensor_type;location;lat;lon;timestamp;temperature;humidity
73572;DHT22;61854;48.510;-2.770;2023-04-09T00:02:22;10.90;93.00
73572;DHT22;61854;48.510;-2.770;2023-04-09T00:04:49;10.90;93.00
73572;DHT22;61854;48.510;-2.770;2023-04-09T00:07:14;10.90;92.90
73572;DHT22;61854;48.510;-2.770;2023-04-09T00:09:40;10.80;93.30
73572;DHT22;61854;48.510;-2.770;2023-04-09T00:12:05;10.80;92.80
73572;DHT22;61854;48.510;-2.770;2023-04-09T00:14:31;10.80;92.80
73572;DHT22;61854;48.510;-2.770;2023-04-09T00:16:56;10.80;92.80
73572;DHT22;61854;48.510;-2.770;2023-04-09T00:19:22;10.80;92.80
73572;DHT22;61854;48.510;-2.770;2023-04-09T00:21:47;10.70;92.70
73572;DHT22;61854;48.510;-2.770;2023-04-09T00:24:13;10.70;92.70
73572;DHT22;61854;48.510;-2.770;2023-04-09T00:26:39;10.70;92.70
73572;DHT22;61854;48.510;-2.770;2023-04-09T00:29:04;10.70;92.70
73572;DHT22;61854;48.510;-2.770;2023-04-09T00:31:30;10.70;92.60
73572;DHT22;61854;48.510;-2.770;2023-04-09T00:33:55;10.70;92.40
73572;DHT22;61854;48.510;-2.770;2023-04-09T00:36:21;10.60;92.40
73572;DHT22;61854;48.510;-2.770;2023-04-09T00:38:46;10.60;92.40
73572;DHT22;61854;48.510;-2.770;2023-04-09T00:41:14;10.60;92.30
73572;DHT22;61854;48.510;-2.770;2023-04-09T00:43:39;10.60;92.20
73572;DHT22;61854;48.510;-2.770;2023-04-09T00:46:05;10.60;92.20
73572;DHT22;61854;48.510;-2.770;2023-04-09T00:48:30;10.70;92.10
73572;DHT22;61854;48.510;-2.770;2023-04-09T00:50:56;10.70;92.00
73572;DHT22;61854;48.510;-2.770;2023-04-09T00:53:21;10.70;91.90
73572;DHT22;61854;48.510;-2.770;2023-04-09T00:55:47;10.60;91.80
73572;DHT22;61854;48.510;-2.770;2023-04-09T00:58:13;10.60;91.70
73572;DHT22;61854;48.510;-2.770;2023-04-09T01:00:38;10.60;91.60
73572;DHT22;61854;48.510;-2.770;2023-04-09T01:03:04;10.60;91.50
73572;DHT22;61854;48.510;-2.770;2023-04-09T01:05:47;10.50;91.40
73572;DHT22;61854;48.510;-2.770;2023-04-09T01:08:18;10.60;91.30
73572;DHT22;61854;48.510;-2.770;2023-04-09T01:10:50;10.60;91.00
73572;DHT22;61854;48.510;-2.770;2023-04-09T01:13:29;10.50;90.90
73572;DHT22;61854;48.510;-2.770;2023-04-09T01:15:56;10.50;90.90
73572;DHT22;61854;48.510;-2.770;2023-04-09T01:20:50;10.50;90.60
73572;DHT22;61854;48.510;-2.770;2023-04-09T01:26:09;10.50;90.50
73572;DHT22;61854;48.510;-2.770;2023-04-09T01:28:38;10.40;90.40
73572;DHT22;61854;48.510;-2.770;2023-04-09T01:31:10;10.40;90.50
73572;DHT22;61854;48.510;-2.770;2023-04-09T01:33:37;10.40;90.40
73572;DHT22;61854;48.510;-2.770;2023-04-09T01:36:04;10.30;90.40
73572;DHT22;61854;48.510;-2.770;2023-04-09T01:38:30;10.30;90.50
73572;DHT22;61854;48.510;-2.770;2023-04-09T01:40:56;10.30;90.60
73572;DHT22;61854;48.510;-2.770;2023-04-09T01:43:22;10.20;90.60
73572;DHT22;61854;48.510;-2.770;2023-04-09T01:45:48;10.20;90.60
73572;DHT22;61854;48.510;-2.770;2023-04-09T01:48:14;10.20;90.60
73572;DHT22;61854;48.510;-2.770;2023-04-09T01:50:41;10.10;90.50
73572;DHT22;61854;48.510;-2.770;2023-04-09T01:53:06;10.10;90.50
73572;DHT22;61854;48.510;-2.770;2023-04-09T01:55:32;10.20;90.50
73572;DHT22;61854;48.510;-2.770;2023-04-09T01:57:58;10.10;90.50
73572;DHT22;61854;48.510;-2.770;2023-04-09T02:00:24;10.10;90.40
73572;DHT22;61854;48.510;-2.770;2023-04-09T02:03:03;10.10;90.40
73572;DHT22;61854;48.510;-2.770;2023-04-09T02:05:30;10.20;90.30
73572;DHT22;61854;48.510;-2.770;2023-04-09T02:08:00;10.20;90.30
73572;DHT22;61854;48.510;-2.770;2023-04-09T02:10:26;10.20;90.10
73572;DHT22;61854;48.510;-2.770;2023-04-09T02:12:57;10.30;89.30
73572;DHT22;61854;48.510;-2.770;2023-04-09T02:15:25;10.30;88.60
73572;DHT22;61854;48.510;-2.770;2023-04-09T02:17:51;10.30;87.90
73572;DHT22;61854;48.510;-2.770;2023-04-09T02:20:17;10.30;87.30
73572;DHT22;61854;48.510;-2.770;2023-04-09T02:22:43;10.40;86.90
73572;DHT22;61854;48.510;-2.770;2023-04-09T02:25:09;10.30;86.80
73572;DHT22;61854;48.510;-2.770;2023-04-09T02:27:34;10.30;86.50
73572;DHT22;61854;48.510;-2.770;2023-04-09T02:30:00;10.30;86.40
73572;DHT22;61854;48.510;-2.770;2023-04-09T02:32:25;10.30;86.30
73572;DHT22;61854;48.510;-2.770;2023-04-09T02:34:51;10.30;86.30
73572;DHT22;61854;48.510;-2.770;2023-04-09T02:37:16;10.30;86.10
73572;DHT22;61854;48.510;-2.770;2023-04-09T02:39:42;10.30;86.10
73572;DHT22;61854;48.510;-2.770;2023-04-09T02:42:08;10.30;86.30
73572;DHT22;61854;48.510;-2.770;2023-04-09T02:44:34;10.30;86.60
73572;DHT22;61854;48.510;-2.770;2023-04-09T02:46:59;10.30;86.40
73572;DHT22;61854;48.510;-2.770;2023-04-09T02:49:25;10.30;86.00
73572;DHT22;61854;48.510;-2.770;2023-04-09T02:51:50;10.30;85.80
73572;DHT22;61854;48.510;-2.770;2023-04-09T02:54:16;10.30;85.60
73572;DHT22;61854;48.510;-2.770;2023-04-09T02:56:41;10.30;85.70
73572;DHT22;61854;48.510;-2.770;2023-04-09T02:59:07;10.20;85.90
73572;DHT22;61854;48.510;-2.770;2023-04-09T03:01:32;10.20;87.00
73572;DHT22;61854;48.510;-2.770;2023-04-09T03:03:58;10.20;86.30
73572;DHT22;61854;48.510;-2.770;2023-04-09T03:06:24;10.10;87.30
73572;DHT22;61854;48.510;-2.770;2023-04-09T03:08:50;10.10;86.50
73572;DHT22;61854;48.510;-2.770;2023-04-09T03:11:16;10.10;86.30
73572;DHT22;61854;48.510;-2.770;2023-04-09T03:13:41;10.10;86.50
73572;DHT22;61854;48.510;-2.770;2023-04-09T03:16:07;10.10;86.50
73572;DHT22;61854;48.510;-2.770;2023-04-09T03:18:34;10.10;86.30
73572;DHT22;61854;48.510;-2.770;2023-04-09T03:21:03;10.00;86.20
73572;DHT22;61854;48.510;-2.770;2023-04-09T03:23:29;10.00;86.10
73572;DHT22;61854;48.510;-2.770;2023-04-09T03:26:05;10.00;86.20
73572;DHT22;61854;48.510;-2.770;2023-04-09T03:28:30;9.90;86.30
73572;DHT22;61854;48.510;-2.770;2023-04-09T03:30:56;9.90;86.30
73572;DHT22;61854;48.510;-2.770;2023-04-09T03:33:22;9.90;86.40
73572;DHT22;61854;48.510;-2.770;2023-04-09T03:35:48;9.90;86.40
73572;DHT22;61854;48.510;-2.770;2023-04-09T03:38:13;9.90;86.30
73572;DHT22;61854;48.510;-2.770;2023-04-09T03:40:39;9.90;86.30
73572;DHT22;61854;48.510;-2.770;2023-04-09T03:43:06;9.90;86.30
73572;DHT22;61854;48.510;-2.770;2023-04-09T03:45:31;9.80;86.30
73572;DHT22;61854;48.510;-2.770;2023-04-09T03:47:57;9.80;86.20
73572;DHT22;61854;48.510;-2.770;2023-04-09T03:50:22;9.80;86.10
73572;DHT22;61854;48.510;-2.770;2023-04-09T03:52:48;9.80;86.10
73572;DHT22;61854;48.510;-2.770;2023-04-09T03:55:13;9.80;86.10
73572;DHT22;61854;48.510;-2.770;2023-04-09T03:57:39;9.80;86.10
73572;DHT22;61854;48.510;-2.770;2023-04-09T04:00:04;9.80;86.10
73572;DHT22;61854;48.510;-2.770;2023-04-09T04:02:30;9.80;86.30
73572;DHT22;61854;48.510;-2.770;2023-04-09T04:04:58;9.70;86.20
73572;DHT22;61854;48.510;-2.770;2023-04-09T04:07:23;9.70;86.40
73572;DHT22;61854;48.510;-2.770;2023-04-09T04:09:49;9.70;86.50
73572;DHT22;61854;48.510;-2.770;2023-04-09T04:12:14;9.60;86.70
73572;DHT22;61854;48.510;-2.770;2023-04-09T04:14:40;9.60;87.10
73572;DHT22;61854;48.510;-2.770;2023-04-09T04:17:05;9.60;86.90
73572;DHT22;61854;48.510;-2.770;2023-04-09T04:19:31;9.60;86.90
73572;DHT22;61854;48.510;-2.770;2023-04-09T04:21:56;9.60;86.90
73572;DHT22;61854;48.510;-2.770;2023-04-09T04:24:22;9.60;86.90
73572;DHT22;61854;48.510;-2.770;2023-04-09T04:26:47;9.60;86.90
73572;DHT22;61854;48.510;-2.770;2023-04-09T04:29:13;9.60;87.00
73572;DHT22;61854;48.510;-2.770;2023-04-09T04:31:38;9.60;86.70
73572;DHT22;61854;48.510;-2.770;2023-04-09T04:34:04;9.70;86.60
73572;DHT22;61854;48.510;-2.770;2023-04-09T04:36:29;9.70;86.50
73572;DHT22;61854;48.510;-2.770;2023-04-09T04:38:55;9.70;86.60
73572;DHT22;61854;48.510;-2.770;2023-04-09T04:41:21;9.70;86.60
73572;DHT22;61854;48.510;-2.770;2023-04-09T04:43:46;9.70;86.60
73572;DHT22;61854;48.510;-2.770;2023-04-09T04:46:12;9.70;86.60
73572;DHT22;61854;48.510;-2.770;2023-04-09T04:48:38;9.60;86.40
73572;DHT22;61854;48.510;-2.770;2023-04-09T04:51:03;9.60;86.60
73572;DHT22;61854;48.510;-2.770;2023-04-09T04:53:29;9.60;86.70
73572;DHT22;61854;48.510;-2.770;2023-04-09T04:55:54;9.50;86.80
73572;DHT22;61854;48.510;-2.770;2023-04-09T04:58:20;9.50;86.80
73572;DHT22;61854;48.510;-2.770;2023-04-09T05:00:45;9.50;86.80
73572;DHT22;61854;48.510;-2.770;2023-04-09T05:03:11;9.50;87.10
73572;DHT22;61854;48.510;-2.770;2023-04-09T05:05:37;9.40;87.30
73572;DHT22;61854;48.510;-2.770;2023-04-09T05:08:02;9.40;87.50
73572;DHT22;61854;48.510;-2.770;2023-04-09T05:10:28;9.40;87.70
73572;DHT22;61854;48.510;-2.770;2023-04-09T05:12:53;9.40;87.90
73572;DHT22;61854;48.510;-2.770;2023-04-09T05:15:19;9.30;88.10
73572;DHT22;61854;48.510;-2.770;2023-04-09T05:17:44;9.30;88.00
73572;DHT22;61854;48.510;-2.770;2023-04-09T05:20:10;9.30;88.00
73572;DHT22;61854;48.510;-2.770;2023-04-09T05:22:36;9.30;88.10
73572;DHT22;61854;48.510;-2.770;2023-04-09T05:25:01;9.30;88.10
73572;DHT22;61854;48.510;-2.770;2023-04-09T05:27:27;9.30;88.20
73572;DHT22;61854;48.510;-2.770;2023-04-09T05:29:53;9.30;88.20
73572;DHT22;61854;48.510;-2.770;2023-04-09T05:32:19;9.30;88.30
73572;DHT22;61854;48.510;-2.770;2023-04-09T05:34:44;9.30;88.20
73572;DHT22;61854;48.510;-2.770;2023-04-09T05:37:10;9.20;88.20
73572;DHT22;61854;48.510;-2.770;2023-04-09T05:39:36;9.20;88.30
73572;DHT22;61854;48.510;-2.770;2023-04-09T05:42:01;9.20;88.50
73572;DHT22;61854;48.510;-2.770;2023-04-09T05:44:27;9.20;88.70
73572;DHT22;61854;48.510;-2.770;2023-04-09T05:46:52;9.10;88.60
73572;DHT22;61854;48.510;-2.770;2023-04-09T05:49:18;9.20;88.60
73572;DHT22;61854;48.510;-2.770;2023-04-09T05:51:43;9.10;88.70
73572;DHT22;61854;48.510;-2.770;2023-04-09T05:54:09;9.10;88.80
73572;DHT22;61854;48.510;-2.770;2023-04-09T05:56:34;9.10;88.90
73572;DHT22;61854;48.510;-2.770;2023-04-09T05:59:00;9.10;88.90
73572;DHT22;61854;48.510;-2.770;2023-04-09T06:01:26;9.10;89.00
73572;DHT22;61854;48.510;-2.770;2023-04-09T06:03:51;9.10;89.10
73572;DHT22;61854;48.510;-2.770;2023-04-09T06:06:17;9.10;89.10
73572;DHT22;61854;48.510;-2.770;2023-04-09T06:08:43;9.10;89.10
73572;DHT22;61854;48.510;-2.770;2023-04-09T06:11:10;9.10;89.00
73572;DHT22;61854;48.510;-2.770;2023-04-09T06:13:35;9.10;88.90
73572;DHT22;61854;48.510;-2.770;2023-04-09T06:16:06;9.10;89.20
73572;DHT22;61854;48.510;-2.770;2023-04-09T06:18:33;9.30;89.50
73572;DHT22;61854;48.510;-2.770;2023-04-09T06:21:05;9.60;88.50
73572;DHT22;61854;48.510;-2.770;2023-04-09T06:23:31;9.70;87.40
73572;DHT22;61854;48.510;-2.770;2023-04-09T06:25:56;9.80;86.40
73572;DHT22;61854;48.510;-2.770;2023-04-09T06:28:22;9.80;86.20
73572;DHT22;61854;48.510;-2.770;2023-04-09T06:30:47;9.80;86.10
73572;DHT22;61854;48.510;-2.770;2023-04-09T06:33:13;9.80;86.40
73572;DHT22;61854;48.510;-2.770;2023-04-09T06:35:38;9.80;86.40
73572;DHT22;61854;48.510;-2.770;2023-04-09T06:38:04;9.80;86.40
73572;DHT22;61854;48.510;-2.770;2023-04-09T06:40:31;9.80;86.10
73572;DHT22;61854;48.510;-2.770;2023-04-09T06:42:56;9.90;86.20
73572;DHT22;61854;48.510;-2.770;2023-04-09T06:45:22;10.00;86.00
73572;DHT22;61854;48.510;-2.770;2023-04-09T06:47:47;10.00;85.60
73572;DHT22;61854;48.510;-2.770;2023-04-09T06:50:16;10.00;85.70
73572;DHT22;61854;48.510;-2.770;2023-04-09T06:52:42;10.00;85.70
73572;DHT22;61854;48.510;-2.770;2023-04-09T06:55:07;10.10;85.70
73572;DHT22;61854;48.510;-2.770;2023-04-09T06:57:33;10.10;85.60
73572;DHT22;61854;48.510;-2.770;2023-04-09T06:59:58;10.40;85.30
73572;DHT22;61854;48.510;-2.770;2023-04-09T07:02:24;10.70;84.60
73572;DHT22;61854;48.510;-2.770;2023-04-09T07:04:50;11.20;83.10
73572;DHT22;61854;48.510;-2.770;2023-04-09T07:07:16;11.50;81.10
73572;DHT22;61854;48.510;-2.770;2023-04-09T07:09:41;11.70;80.30
73572;DHT22;61854;48.510;-2.770;2023-04-09T07:12:07;11.70;78.60
73572;DHT22;61854;48.510;-2.770;2023-04-09T07:14:32;11.60;78.80
73572;DHT22;61854;48.510;-2.770;2023-04-09T07:16:58;11.70;78.20
73572;DHT22;61854;48.510;-2.770;2023-04-09T07:19:23;11.90;78.00
73572;DHT22;61854;48.510;-2.770;2023-04-09T07:21:49;12.10;77.10
73572;DHT22;61854;48.510;-2.770;2023-04-09T07:24:15;12.30;76.50
73572;DHT22;61854;48.510;-2.770;2023-04-09T07:26:40;12.50;75.30
73572;DHT22;61854;48.510;-2.770;2023-04-09T07:29:06;12.70;74.40
73572;DHT22;61854;48.510;-2.770;2023-04-09T07:31:32;12.70;73.90
73572;DHT22;61854;48.510;-2.770;2023-04-09T07:33:58;12.60;74.00
73572;DHT22;61854;48.510;-2.770;2023-04-09T07:36:23;12.40;74.80
73572;DHT22;61854;48.510;-2.770;2023-04-09T07:38:49;12.20;75.40
73572;DHT22;61854;48.510;-2.770;2023-04-09T07:41:14;12.20;76.10
73572;DHT22;61854;48.510;-2.770;2023-04-09T07:43:40;12.10;76.60
73572;DHT22;61854;48.510;-2.770;2023-04-09T07:46:05;12.10;76.90
73572;DHT22;61854;48.510;-2.770;2023-04-09T07:48:31;12.00;77.20
73572;DHT22;61854;48.510;-2.770;2023-04-09T07:50:56;12.00;77.40
73572;DHT22;61854;48.510;-2.770;2023-04-09T07:53:22;12.00;77.70
73572;DHT22;61854;48.510;-2.770;2023-04-09T07:55:49;12.00;78.00
73572;DHT22;61854;48.510;-2.770;2023-04-09T07:58:15;12.00;78.00
73572;DHT22;61854;48.510;-2.770;2023-04-09T08:00:41;12.00;77.70
73572;DHT22;61854;48.510;-2.770;2023-04-09T08:03:06;12.10;78.00
73572;DHT22;61854;48.510;-2.770;2023-04-09T08:05:32;12.10;77.90
73572;DHT22;61854;48.510;-2.770;2023-04-09T08:07:57;12.10;78.00
73572;DHT22;61854;48.510;-2.770;2023-04-09T08:10:23;12.20;78.00
73572;DHT22;61854;48.510;-2.770;2023-04-09T08:12:48;12.20;77.70
73572;DHT22;61854;48.510;-2.770;2023-04-09T08:15:14;12.20;77.80
73572;DHT22;61854;48.510;-2.770;2023-04-09T08:17:40;12.30;77.80
73572;DHT22;61854;48.510;-2.770;2023-04-09T08:20:06;12.40;77.60
73572;DHT22;61854;48.510;-2.770;2023-04-09T08:22:32;12.40;77.70
73572;DHT22;61854;48.510;-2.770;2023-04-09T08:24:58;12.60;77.40
73572;DHT22;61854;48.510;-2.770;2023-04-09T08:27:24;12.60;77.10
73572;DHT22;61854;48.510;-2.770;2023-04-09T08:29:49;12.70;77.30
73572;DHT22;61854;48.510;-2.770;2023-04-09T08:32:15;12.70;77.40
73572;DHT22;61854;48.510;-2.770;2023-04-09T08:34:40;12.80;77.20
73572;DHT22;61854;48.510;-2.770;2023-04-09T08:37:06;12.80;77.20
73572;DHT22;61854;48.510;-2.770;2023-04-09T08:39:32;12.90;75.90
73572;DHT22;61854;48.510;-2.770;2023-04-09T08:41:58;13.00;74.50
73572;DHT22;61854;48.510;-2.770;2023-04-09T08:44:27;13.10;73.80
73572;DHT22;61854;48.510;-2.770;2023-04-09T08:46:53;13.20;72.80
73572;DHT22;61854;48.510;-2.770;2023-04-09T08:49:18;13.30;72.10
73572;DHT22;61854;48.510;-2.770;2023-04-09T08:51:45;13.30;72.10
73572;DHT22;61854;48.510;-2.770;2023-04-09T08:54:13;13.40;72.10
73572;DHT22;61854;48.510;-2.770;2023-04-09T08:56:38;13.40;71.20
73572;DHT22;61854;48.510;-2.770;2023-04-09T08:59:04;13.50;70.50
73572;DHT22;61854;48.510;-2.770;2023-04-09T09:01:30;13.60;70.20
73572;DHT22;61854;48.510;-2.770;2023-04-09T09:06:29;13.70;69.00
73572;DHT22;61854;48.510;-2.770;2023-04-09T09:09:07;13.80;69.20
73572;DHT22;61854;48.510;-2.770;2023-04-09T09:11:36;13.90;68.70
73572;DHT22;61854;48.510;-2.770;2023-04-09T09:14:06;13.90;67.90
73572;DHT22;61854;48.510;-2.770;2023-04-09T09:16:32;14.00;67.60
73572;DHT22;61854;48.510;-2.770;2023-04-09T09:18:59;14.10;67.00
73572;DHT22;61854;48.510;-2.770;2023-04-09T09:21:25;14.10;67.00
73572;DHT22;61854;48.510;-2.770;2023-04-09T09:23:51;14.20;66.70
73572;DHT22;61854;48.510;-2.770;2023-04-09T09:26:18;14.30;66.30
73572;DHT22;61854;48.510;-2.770;2023-04-09T09:28:44;14.30;66.10
73572;DHT22;61854;48.510;-2.770;2023-04-09T09:31:11;14.30;65.50
73572;DHT22;61854;48.510;-2.770;2023-04-09T09:33:37;14.40;65.40
73572;DHT22;61854;48.510;-2.770;2023-04-09T09:36:02;14.40;65.70
73572;DHT22;61854;48.510;-2.770;2023-04-09T09:38:28;14.50;65.20
73572;DHT22;61854;48.510;-2.770;2023-04-09T09:40:54;14.60;65.50
73572;DHT22;61854;48.510;-2.770;2023-04-09T09:43:20;14.60;64.80
73572;DHT22;61854;48.510;-2.770;2023-04-09T09:45:46;14.60;65.00
73572;DHT22;61854;48.510;-2.770;2023-04-09T09:48:12;14.60;65.00
73572;DHT22;61854;48.510;-2.770;2023-04-09T09:50:38;14.70;64.80
73572;DHT22;61854;48.510;-2.770;2023-04-09T09:53:06;14.70;63.40
73572;DHT22;61854;48.510;-2.770;2023-04-09T09:55:32;14.70;63.40
73572;DHT22;61854;48.510;-2.770;2023-04-09T09:58:02;14.80;63.30
73572;DHT22;61854;48.510;-2.770;2023-04-09T10:00:31;14.90;63.30
73572;DHT22;61854;48.510;-2.770;2023-04-09T10:02:58;14.90;62.90
73572;DHT22;61854;48.510;-2.770;2023-04-09T10:05:24;15.00;62.90
73572;DHT22;61854;48.510;-2.770;2023-04-09T10:07:55;15.00;62.90
73572;DHT22;61854;48.510;-2.770;2023-04-09T10:10:22;15.10;62.60
73572;DHT22;61854;48.510;-2.770;2023-04-09T10:12:48;15.10;62.80
73572;DHT22;61854;48.510;-2.770;2023-04-09T10:15:14;15.10;62.50
73572;DHT22;61854;48.510;-2.770;2023-04-09T10:17:40;15.20;62.80
73572;DHT22;61854;48.510;-2.770;2023-04-09T10:20:13;15.30;60.50
73572;DHT22;61854;48.510;-2.770;2023-04-09T10:22:39;15.40;60.20
73572;DHT22;61854;48.510;-2.770;2023-04-09T10:25:06;15.40;58.60
73572;DHT22;61854;48.510;-2.770;2023-04-09T10:27:32;15.50;59.00
73572;DHT22;61854;48.510;-2.770;2023-04-09T10:29:57;15.60;59.80
73572;DHT22;61854;48.510;-2.770;2023-04-09T10:32:24;15.60;58.80
73572;DHT22;61854;48.510;-2.770;2023-04-09T10:34:55;15.60;58.90
73572;DHT22;61854;48.510;-2.770;2023-04-09T10:37:22;15.60;59.70
73572;DHT22;61854;48.510;-2.770;2023-04-09T10:39:48;15.70;59.70
73572;DHT22;61854;48.510;-2.770;2023-04-09T10:45:08;15.70;59.60
73572;DHT22;61854;48.510;-2.770;2023-04-09T10:47:35;15.80;60.50
73572;DHT22;61854;48.510;-2.770;2023-04-09T10:50:14;15.90;59.40
73572;DHT22;61854;48.510;-2.770;2023-04-09T10:52:40;16.00;58.90
73572;DHT22;61854;48.510;-2.770;2023-04-09T10:55:06;16.10;57.30
73572;DHT22;61854;48.510;-2.770;2023-04-09T10:57:32;16.30;56.70
73572;DHT22;61854;48.510;-2.770;2023-04-09T10:59:58;16.40;56.60
73572;DHT22;61854;48.510;-2.770;2023-04-09T11:02:30;16.50;55.50
73572;DHT22;61854;48.510;-2.770;2023-04-09T11:07:43;16.40;54.70
73572;DHT22;61854;48.510;-2.770;2023-04-09T11:10:09;16.30;54.10
73572;DHT22;61854;48.510;-2.770;2023-04-09T11:12:35;16.30;53.60
73572;DHT22;61854;48.510;-2.770;2023-04-09T11:15:01;16.40;53.50
73572;DHT22;61854;48.510;-2.770;2023-04-09T11:17:26;16.50;53.60
73572;DHT22;61854;48.510;-2.770;2023-04-09T11:19:52;16.50;52.90
73572;DHT22;61854;48.510;-2.770;2023-04-09T11:22:17;16.60;53.70
73572;DHT22;61854;48.510;-2.770;2023-04-09T11:24:43;16.70;52.00
73572;DHT22;61854;48.510;-2.770;2023-04-09T11:27:09;16.70;52.60
73572;DHT22;61854;48.510;-2.770;2023-04-09T11:29:35;16.80;52.10
73572;DHT22;61854;48.510;-2.770;2023-04-09T11:32:01;16.90;51.50
73572;DHT22;61854;48.510;-2.770;2023-04-09T11:34:27;17.00;51.00
73572;DHT22;61854;48.510;-2.770;2023-04-09T11:36:52;17.10;50.70
73572;DHT22;61854;48.510;-2.770;2023-04-09T11:39:18;17.20;50.10
73572;DHT22;61854;48.510;-2.770;2023-04-09T11:41:43;17.20;50.50
73572;DHT22;61854;48.510;-2.770;2023-04-09T11:44:12;17.30;50.10
73572;DHT22;61854;48.510;-2.770;2023-04-09T11:46:38;17.40;49.70
73572;DHT22;61854;48.510;-2.770;2023-04-09T11:49:03;17.60;48.90
73572;DHT22;61854;48.510;-2.770;2023-04-09T11:51:29;17.70;48.20
73572;DHT22;61854;48.510;-2.770;2023-04-09T11:54:04;17.70;48.40
73572;DHT22;61854;48.510;-2.770;2023-04-09T11:56:30;17.70;48.00
73572;DHT22;61854;48.510;-2.770;2023-04-09T11:58:55;17.90;47.60
73572;DHT22;61854;48.510;-2.770;2023-04-09T12:01:21;18.00;47.70
73572;DHT22;61854;48.510;-2.770;2023-04-09T12:03:53;18.10;47.70
73572;DHT22;61854;48.510;-2.770;2023-04-09T12:06:19;18.10;46.50
73572;DHT22;61854;48.510;-2.770;2023-04-09T12:08:45;18.10;44.70
73572;DHT22;61854;48.510;-2.770;2023-04-09T12:11:13;18.20;45.40
73572;DHT22;61854;48.510;-2.770;2023-04-09T12:13:39;18.30;45.10
73572;DHT22;61854;48.510;-2.770;2023-04-09T12:16:07;18.30;44.80
73572;DHT22;61854;48.510;-2.770;2023-04-09T12:18:36;18.30;43.80
73572;DHT22;61854;48.510;-2.770;2023-04-09T12:21:02;18.50;43.50
73572;DHT22;61854;48.510;-2.770;2023-04-09T12:23:28;18.50;43.50
73572;DHT22;61854;48.510;-2.770;2023-04-09T12:25:55;18.60;41.60
73572;DHT22;61854;48.510;-2.770;2023-04-09T12:28:23;18.60;41.70
73572;DHT22;61854;48.510;-2.770;2023-04-09T12:30:49;18.70;41.20
73572;DHT22;61854;48.510;-2.770;2023-04-09T12:33:15;18.80;41.50
73572;DHT22;61854;48.510;-2.770;2023-04-09T12:35:40;18.90;42.00
73572;DHT22;61854;48.510;-2.770;2023-04-09T12:38:06;18.90;41.30
73572;DHT22;61854;48.510;-2.770;2023-04-09T12:40:31;18.90;41.20
73572;DHT22;61854;48.510;-2.770;2023-04-09T12:42:57;19.00;41.90
73572;DHT22;61854;48.510;-2.770;2023-04-09T12:45:23;19.00;41.50
73572;DHT22;61854;48.510;-2.770;2023-04-09T12:47:48;19.10;41.90
73572;DHT22;61854;48.510;-2.770;2023-04-09T12:50:14;19.20;42.30
73572;DHT22;61854;48.510;-2.770;2023-04-09T12:52:40;19.20;41.30
73572;DHT22;61854;48.510;-2.770;2023-04-09T12:55:08;19.30;41.00
73572;DHT22;61854;48.510;-2.770;2023-04-09T12:57:35;19.30;41.80
73572;DHT22;61854;48.510;-2.770;2023-04-09T13:00:01;19.30;42.40
73572;DHT22;61854;48.510;-2.770;2023-04-09T13:02:27;19.30;42.90
73572;DHT22;61854;48.510;-2.770;2023-04-09T13:04:52;19.40;42.60
73572;DHT22;61854;48.510;-2.770;2023-04-09T13:07:18;19.50;42.60
73572;DHT22;61854;48.510;-2.770;2023-04-09T13:09:44;19.50;42.00
73572;DHT22;61854;48.510;-2.770;2023-04-09T13:12:10;19.60;40.90
73572;DHT22;61854;48.510;-2.770;2023-04-09T13:14:37;19.60;41.60
73572;DHT22;61854;48.510;-2.770;2023-04-09T13:17:03;19.50;42.60
73572;DHT22;61854;48.510;-2.770;2023-04-09T13:19:28;19.50;42.30
73572;DHT22;61854;48.510;-2.770;2023-04-09T13:21:54;19.50;42.10
73572;DHT22;61854;48.510;-2.770;2023-04-09T13:24:19;19.60;42.60
73572;DHT22;61854;48.510;-2.770;2023-04-09T13:26:45;19.60;42.80
73572;DHT22;61854;48.510;-2.770;2023-04-09T13:29:10;19.70;42.80
73572;DHT22;61854;48.510;-2.770;2023-04-09T13:31:36;19.70;42.30
73572;DHT22;61854;48.510;-2.770;2023-04-09T13:34:01;19.60;43.40
73572;DHT22;61854;48.510;-2.770;2023-04-09T13:36:28;19.70;43.90
73572;DHT22;61854;48.510;-2.770;2023-04-09T13:38:53;19.80;43.30
73572;DHT22;61854;48.510;-2.770;2023-04-09T13:41:20;19.80;43.80
73572;DHT22;61854;48.510;-2.770;2023-04-09T13:43:45;19.80;44.70
73572;DHT22;61854;48.510;-2.770;2023-04-09T13:46:11;19.80;44.40
73572;DHT22;61854;48.510;-2.770;2023-04-09T13:48:36;19.70;44.20
73572;DHT22;61854;48.510;-2.770;2023-04-09T13:51:02;19.70;44.30
73572;DHT22;61854;48.510;-2.770;2023-04-09T13:53:28;19.60;43.60
73572;DHT22;61854;48.510;-2.770;2023-04-09T13:55:53;19.80;43.60
73572;DHT22;61854;48.510;-2.770;2023-04-09T13:58:19;19.80;43.20
73572;DHT22;61854;48.510;-2.770;2023-04-09T14:00:46;19.80;42.90
73572;DHT22;61854;48.510;-2.770;2023-04-09T14:03:12;19.70;42.80
73572;DHT22;61854;48.510;-2.770;2023-04-09T14:05:38;19.70;42.30
73572;DHT22;61854;48.510;-2.770;2023-04-09T14:08:03;19.70;41.60
73572;DHT22;61854;48.510;-2.770;2023-04-09T14:10:29;19.60;41.90
73572;DHT22;61854;48.510;-2.770;2023-04-09T14:12:55;19.70;42.30
73572;DHT22;61854;48.510;-2.770;2023-04-09T14:15:20;19.60;42.70
73572;DHT22;61854;48.510;-2.770;2023-04-09T14:17:46;19.70;42.50
73572;DHT22;61854;48.510;-2.770;2023-04-09T14:20:11;19.80;41.60
73572;DHT22;61854;48.510;-2.770;2023-04-09T14:22:37;20.00;41.60
73572;DHT22;61854;48.510;-2.770;2023-04-09T14:25:03;20.20;40.30
73572;DHT22;61854;48.510;-2.770;2023-04-09T14:27:28;20.20;41.20
73572;DHT22;61854;48.510;-2.770;2023-04-09T14:29:54;20.20;40.60
73572;DHT22;61854;48.510;-2.770;2023-04-09T14:32:19;20.30;40.80
73572;DHT22;61854;48.510;-2.770;2023-04-09T14:34:45;20.50;40.50
73572;DHT22;61854;48.510;-2.770;2023-04-09T14:37:10;20.70;39.10
73572;DHT22;61854;48.510;-2.770;2023-04-09T14:39:36;20.80;38.80
73572;DHT22;61854;48.510;-2.770;2023-04-09T14:42:02;20.70;38.70
73572;DHT22;61854;48.510;-2.770;2023-04-09T14:44:27;20.70;38.70
73572;DHT22;61854;48.510;-2.770;2023-04-09T14:46:53;20.60;39.30
73572;DHT22;61854;48.510;-2.770;2023-04-09T14:49:19;20.80;39.10
73572;DHT22;61854;48.510;-2.770;2023-04-09T14:51:45;20.80;39.30
73572;DHT22;61854;48.510;-2.770;2023-04-09T14:54:10;20.70;39.20
73572;DHT22;61854;48.510;-2.770;2023-04-09T14:56:36;20.70;39.00
73572;DHT22;61854;48.510;-2.770;2023-04-09T14:59:01;20.60;38.70
73572;DHT22;61854;48.510;-2.770;2023-04-09T15:01:27;20.60;37.20
73572;DHT22;61854;48.510;-2.770;2023-04-09T15:03:53;20.60;36.10
73572;DHT22;61854;48.510;-2.770;2023-04-09T15:06:18;20.70;33.80
73572;DHT22;61854;48.510;-2.770;2023-04-09T15:08:44;20.70;34.80
73572;DHT22;61854;48.510;-2.770;2023-04-09T15:11:16;20.60;35.90
73572;DHT22;61854;48.510;-2.770;2023-04-09T15:13:42;20.60;37.00
73572;DHT22;61854;48.510;-2.770;2023-04-09T15:16:08;20.80;34.40
73572;DHT22;61854;48.510;-2.770;2023-04-09T15:18:33;20.60;35.80
73572;DHT22;61854;48.510;-2.770;2023-04-09T15:21:00;20.60;34.60
73572;DHT22;61854;48.510;-2.770;2023-04-09T15:23:26;20.60;35.10
73572;DHT22;61854;48.510;-2.770;2023-04-09T15:25:51;20.60;34.20
73572;DHT22;61854;48.510;-2.770;2023-04-09T15:28:17;20.50;34.20